createdAt,value
2023-03-12T00:01:59.117Z,5.30
2023-03-12T00:04:25.629Z,4.05
2023-03-12T00:06:52.374Z,3.58
2023-03-12T00:09:18.790Z,2.97
2023-03-12T00:11:47.683Z,5.28
2023-03-12T00:14:14.321Z,3.17
2023-03-12T00:16:41.290Z,7.57
2023-03-12T00:19:08.153Z,3.45
2023-03-12T00:21:34.579Z,3.38
2023-03-12T00:24:00.974Z,4.88
2023-03-12T00:26:27.369Z,3.85
2023-03-12T00:28:55.170Z,4.55
2023-03-12T00:31:22.579Z,3.10
2023-03-12T00:33:49.367Z,4.10
2023-03-12T00:36:16.068Z,5.43
2023-03-12T00:38:42.443Z,4.90
2023-03-12T00:41:08.853Z,3.88
2023-03-12T00:43:35.247Z,3.67
2023-03-12T00:46:03.046Z,5.30
2023-03-12T00:48:29.424Z,3.60
2023-03-12T00:50:55.878Z,6.30
2023-03-12T00:53:22.296Z,4.03
2023-03-12T00:55:48.677Z,6.45
2023-03-12T00:58:15.036Z,5.30
2023-03-12T01:00:41.575Z,4.53
2023-03-12T01:03:09.365Z,4.93
2023-03-12T01:05:35.808Z,4.30
2023-03-12T01:08:02.182Z,4.03
2023-03-12T01:10:28.572Z,4.32
2023-03-12T01:12:54.937Z,7.22
2023-03-12T01:15:21.641Z,3.53
2023-03-12T01:17:48.205Z,6.88
2023-03-12T01:20:15.987Z,5.55
2023-03-12T01:22:42.380Z,3.58
2023-03-12T01:25:09.098Z,5.55
2023-03-12T01:27:35.492Z,3.65
2023-03-12T01:30:01.981Z,4.57
2023-03-12T01:32:28.675Z,4.80
2023-03-12T01:34:55.330Z,4.78
2023-03-12T01:37:23.131Z,5.88
2023-03-12T01:39:49.508Z,3.60
2023-03-12T01:42:15.957Z,4.28
2023-03-12T01:44:52.405Z,4.80
2023-03-12T01:47:18.801Z,3.15
2023-03-12T01:49:45.522Z,3.80
2023-03-12T01:52:13.734Z,6.72
2023-03-12T01:54:42.623Z,3.55
2023-03-12T01:57:11.065Z,4.80
2023-03-12T01:59:38.745Z,3.63
2023-03-12T02:02:06.440Z,3.95
2023-03-12T02:04:33.467Z,3.67
2023-03-12T02:07:02.419Z,6.00
2023-03-12T02:09:29.460Z,4.47
2023-03-12T02:11:57.224Z,6.72
2023-03-12T02:14:23.719Z,4.93
2023-03-12T02:16:50.287Z,2.97
2023-03-12T02:19:20.616Z,3.25
2023-03-12T02:21:47.017Z,7.30
2023-03-12T02:24:17.074Z,4.18
2023-03-12T02:26:44.811Z,4.88
2023-03-12T02:29:11.912Z,4.57
2023-03-12T02:31:41.120Z,3.15
2023-03-12T02:34:07.579Z,4.45
2023-03-12T02:36:33.936Z,5.05
2023-03-12T02:39:00.283Z,2.97
2023-03-12T02:41:28.759Z,5.05
2023-03-12T02:43:58.923Z,2.67
2023-03-12T02:46:25.714Z,4.03
2023-03-12T02:48:52.679Z,4.13
2023-03-12T02:51:19.057Z,3.25
2023-03-12T02:53:45.455Z,6.20
2023-03-12T02:56:11.828Z,3.08
2023-03-12T02:58:38.239Z,5.25
2023-03-12T03:01:06.203Z,3.22
2023-03-12T03:03:32.714Z,2.80
2023-03-12T03:05:59.126Z,3.10
2023-03-12T03:08:25.582Z,3.83
2023-03-12T03:10:52.068Z,3.50
2023-03-12T03:13:20.363Z,4.63
2023-03-12T03:15:46.836Z,4.53
2023-03-12T03:18:14.629Z,2.60
2023-03-12T03:20:40.996Z,3.35
2023-03-12T03:23:07.404Z,3.63
2023-03-12T03:25:33.977Z,4.57
2023-03-12T03:28:00.379Z,3.03
2023-03-12T03:30:26.741Z,5.20
2023-03-12T03:32:53.201Z,4.28
2023-03-12T03:35:20.978Z,3.75
2023-03-12T03:37:47.376Z,4.47
2023-03-12T03:40:13.769Z,4.63
2023-03-12T03:42:40.266Z,4.55
2023-03-12T03:45:08.517Z,5.43
2023-03-12T03:47:35.169Z,4.68
2023-03-12T03:50:01.617Z,4.15
2023-03-12T03:52:29.454Z,4.72
2023-03-12T03:54:55.952Z,5.05
2023-03-12T03:57:22.406Z,4.25
2023-03-12T03:59:48.935Z,5.10
2023-03-12T04:02:15.338Z,4.68
2023-03-12T04:04:41.742Z,4.07
2023-03-12T04:07:08.140Z,5.60
2023-03-12T04:09:36.225Z,5.40
2023-03-12T04:12:02.693Z,3.97
2023-03-12T04:14:29.023Z,4.47
2023-03-12T04:16:55.421Z,4.75
2023-03-12T04:19:21.878Z,5.55
2023-03-12T04:21:48.275Z,4.03
2023-03-12T04:24:15.661Z,3.47
2023-03-12T04:26:44.148Z,5.95
2023-03-12T04:29:10.539Z,7.05
2023-03-12T04:31:36.947Z,4.13
2023-03-12T04:34:03.633Z,5.43
2023-03-12T04:36:30.003Z,4.75
2023-03-12T04:38:56.598Z,3.83
2023-03-12T04:41:23.031Z,3.58
2023-03-12T04:43:51.128Z,3.55
2023-03-12T04:46:17.650Z,4.72
2023-03-12T04:48:44.074Z,4.13
2023-03-12T04:51:10.606Z,5.03
2023-03-12T04:53:37.068Z,4.72
2023-03-12T04:56:03.604Z,3.38
2023-03-12T04:58:30.021Z,6.35
2023-03-12T05:00:57.842Z,4.70
2023-03-12T05:03:24.301Z,4.05
2023-03-12T05:05:50.714Z,5.75
2023-03-12T05:08:17.116Z,3.30
2023-03-12T05:10:43.653Z,5.15
2023-03-12T05:13:13.526Z,6.53
2023-03-12T05:15:39.926Z,3.55
2023-03-12T05:18:07.775Z,4.68
2023-03-12T05:20:34.171Z,6.22
2023-03-12T05:23:00.647Z,3.88
2023-03-12T05:25:27.147Z,4.63
2023-03-12T05:27:53.540Z,5.97
2023-03-12T05:30:19.997Z,6.45
2023-03-12T05:32:46.422Z,5.78
2023-03-12T05:35:14.330Z,3.75
2023-03-12T05:37:41.102Z,4.57
2023-03-12T05:40:09.741Z,4.38
2023-03-12T05:42:36.217Z,5.18
2023-03-12T05:45:02.881Z,4.07
2023-03-12T05:47:29.453Z,9.43
2023-03-12T05:49:56.068Z,4.63
2023-03-12T05:52:23.890Z,5.00
2023-03-12T05:54:52.099Z,5.57
2023-03-12T05:57:18.952Z,6.47
2023-03-12T05:59:45.836Z,4.85
2023-03-12T06:02:13.107Z,5.82
2023-03-12T06:04:40.357Z,3.85
2023-03-12T06:07:07.046Z,5.47
2023-03-12T06:09:35.516Z,6.00
2023-03-12T06:12:01.971Z,11.35
2023-03-12T06:14:28.406Z,5.82
2023-03-12T06:16:55.235Z,7.13
2023-03-12T06:19:21.888Z,8.48
2023-03-12T06:21:48.495Z,10.70
2023-03-12T06:24:15.001Z,12.65
2023-03-12T06:26:42.985Z,12.68
2023-03-12T06:29:09.578Z,13.82
2023-03-12T06:31:38.723Z,16.13
2023-03-12T06:34:05.568Z,13.98
2023-03-12T06:36:32.236Z,12.38
2023-03-12T06:38:58.923Z,11.02
2023-03-12T06:41:25.328Z,10.57
2023-03-12T06:43:53.106Z,6.43
2023-03-12T06:46:20.186Z,4.85
2023-03-12T06:48:46.666Z,6.35
2023-03-12T06:51:13.942Z,5.95
2023-03-12T06:53:42.485Z,7.68
2023-03-12T06:56:09.114Z,5.38
2023-03-12T06:58:35.484Z,5.30
2023-03-12T07:01:03.918Z,6.53
2023-03-12T07:03:30.377Z,5.35
2023-03-12T07:05:57.204Z,7.18
2023-03-12T07:08:24.260Z,6.57
2023-03-12T07:10:50.670Z,8.48
2023-03-12T07:13:17.862Z,5.43
2023-03-12T07:15:44.392Z,5.03
2023-03-12T07:18:12.392Z,5.32
2023-03-12T07:20:39.750Z,5.53
2023-03-12T07:23:06.399Z,7.63
2023-03-12T07:25:34.983Z,5.85
2023-03-12T07:28:01.490Z,5.90
2023-03-12T07:30:27.940Z,6.22
2023-03-12T07:32:54.408Z,8.70
2023-03-12T07:35:22.348Z,5.82
2023-03-12T07:37:48.882Z,6.38
2023-03-12T07:40:15.383Z,4.10
2023-03-12T07:42:41.757Z,5.85
2023-03-12T07:45:08.428Z,6.57
2023-03-12T07:47:34.993Z,4.72
2023-03-12T07:50:01.468Z,4.63
2023-03-12T07:52:29.407Z,4.32
2023-03-12T07:54:55.933Z,7.15
2023-03-12T07:57:22.408Z,6.68
2023-03-12T07:59:48.887Z,4.90
2023-03-12T08:02:15.394Z,5.97
2023-03-12T08:04:41.974Z,9.13
2023-03-12T08:07:09.408Z,7.13
2023-03-12T08:09:38.056Z,5.53
2023-03-12T08:12:04.569Z,6.03
2023-03-12T08:14:30.993Z,4.88
2023-03-12T08:16:57.633Z,4.70
2023-03-12T08:19:24.015Z,5.80
2023-03-12T08:21:50.456Z,6.40
2023-03-12T08:24:16.825Z,4.47
2023-03-12T08:26:44.563Z,6.18
2023-03-12T08:29:10.989Z,4.70
2023-03-12T08:31:37.522Z,4.95
2023-03-12T08:34:03.963Z,6.28
2023-03-12T08:36:30.385Z,5.32
2023-03-12T08:38:56.765Z,5.22
2023-03-12T08:41:23.189Z,7.30
2023-03-12T08:43:50.945Z,5.93
2023-03-12T08:46:17.510Z,5.22
2023-03-12T08:48:43.941Z,6.82
2023-03-12T08:51:10.303Z,5.45
2023-03-12T08:53:36.774Z,6.88
2023-03-12T08:56:03.822Z,5.75
2023-03-12T08:58:30.334Z,6.85
2023-03-12T09:00:58.260Z,5.00
2023-03-12T09:03:24.944Z,5.07
2023-03-12T09:05:51.888Z,7.72
2023-03-12T09:08:18.276Z,6.53
2023-03-12T09:10:47.884Z,5.75
2023-03-12T09:15:40.475Z,7.35
2023-03-12T09:18:08.217Z,4.43
2023-03-12T09:20:34.655Z,5.25
2023-03-12T09:23:01.034Z,5.35
2023-03-12T09:25:27.463Z,7.60
2023-03-12T09:27:53.934Z,4.88
2023-03-12T09:30:21.277Z,5.78
2023-03-12T09:32:47.934Z,4.80
2023-03-12T09:35:15.932Z,5.47
2023-03-12T09:37:42.558Z,4.63
2023-03-12T09:40:12.335Z,5.53
2023-03-12T09:42:40.762Z,6.80
2023-03-12T09:45:07.782Z,7.43
2023-03-12T09:47:35.719Z,4.90
2023-03-12T09:50:05.418Z,5.65
2023-03-12T09:55:02.636Z,5.55
2023-03-12T09:57:29.431Z,5.25
2023-03-12T09:59:56.244Z,7.15
2023-03-12T10:02:37.152Z,5.10
2023-03-12T10:05:06.795Z,8.23
2023-03-12T10:10:26.476Z,6.47
2023-03-12T10:13:02.544Z,4.90
2023-03-12T10:15:36.457Z,6.80
2023-03-12T10:18:07.945Z,5.00
2023-03-12T10:20:46.392Z,6.15
2023-03-12T10:23:16.364Z,5.22
2023-03-12T10:25:46.984Z,6.03
2023-03-12T10:28:15.322Z,4.47
2023-03-12T10:30:45.816Z,4.32
2023-03-12T10:33:13.877Z,4.93
2023-03-12T10:35:40.499Z,5.47
2023-03-12T10:38:11.507Z,4.63
2023-03-12T10:40:37.901Z,4.93
2023-03-12T10:43:05.812Z,5.85
2023-03-12T10:45:35.114Z,4.93
2023-03-12T10:48:02.616Z,6.10
2023-03-12T10:50:29.722Z,6.55
2023-03-12T10:53:10.963Z,6.15
2023-03-12T10:55:37.357Z,6.32
2023-03-12T10:58:03.768Z,6.82
2023-03-12T11:00:32.520Z,5.75
2023-03-12T11:03:00.277Z,5.87
2023-03-12T11:05:28.252Z,4.15
2023-03-12T11:07:55.028Z,7.18
2023-03-12T11:10:23.429Z,6.10
2023-03-12T11:13:01.057Z,10.25
2023-03-12T11:15:28.549Z,4.60
2023-03-12T11:18:17.577Z,4.30
2023-03-12T11:20:43.976Z,5.15
2023-03-12T11:23:13.450Z,4.35
2023-03-12T11:25:40.243Z,5.35
2023-03-12T11:28:07.748Z,5.88
2023-03-12T11:30:36.670Z,5.60
2023-03-12T11:33:03.147Z,4.60
2023-03-12T11:35:38.945Z,5.65
2023-03-12T11:38:09.606Z,4.97
2023-03-12T11:40:45.945Z,4.78
2023-03-12T11:43:32.386Z,5.78
2023-03-12T11:46:11.596Z,5.47
2023-03-12T11:48:42.609Z,5.47
2023-03-12T11:51:16.084Z,4.88
2023-03-12T11:53:53.016Z,5.53
2023-03-12T11:56:24.548Z,4.80
2023-03-12T11:59:02.737Z,4.60
2023-03-12T12:01:33.279Z,5.43
2023-03-12T12:04:10.971Z,6.60
2023-03-12T12:06:42.540Z,4.22
2023-03-12T12:09:12.682Z,5.15
2023-03-12T12:11:46.035Z,7.93
2023-03-12T12:14:16.418Z,4.68
2023-03-12T12:16:51.408Z,7.10
2023-03-12T12:19:22.683Z,4.35
2023-03-12T12:21:55.840Z,7.13
2023-03-12T12:24:29.357Z,4.63
2023-03-12T12:26:59.541Z,4.65
2023-03-12T12:29:29.094Z,4.70
2023-03-12T12:34:39.621Z,4.28
2023-03-12T12:37:20.331Z,4.70
2023-03-12T12:39:48.712Z,4.68
2023-03-12T12:42:18.024Z,4.55
2023-03-12T12:44:47.676Z,4.20
2023-03-12T12:47:16.057Z,5.13
2023-03-12T12:49:43.944Z,4.60
2023-03-12T12:52:12.224Z,4.00
2023-03-12T12:54:45.013Z,3.97
2023-03-12T12:57:14.420Z,5.13
2023-03-12T12:59:42.526Z,4.50
2023-03-12T13:02:15.777Z,5.18
2023-03-12T13:04:42.500Z,4.05
2023-03-12T13:07:25.229Z,5.78
2023-03-12T13:09:55.481Z,3.78
2023-03-12T13:12:27.134Z,3.83
2023-03-12T13:14:54.684Z,4.38
2023-03-12T13:17:23.066Z,4.97
2023-03-12T13:19:55.615Z,4.75
2023-03-12T13:22:29.612Z,4.57
2023-03-12T13:24:59.992Z,3.90
2023-03-12T13:27:29.467Z,4.50
2023-03-12T13:32:52.698Z,4.35
2023-03-12T13:35:29.637Z,4.03
2023-03-12T13:38:03.566Z,4.28
2023-03-12T13:40:59.857Z,5.03
2023-03-12T13:43:41.253Z,4.25
2023-03-12T13:46:08.610Z,4.07
2023-03-12T13:48:36.082Z,6.18
2023-03-12T13:51:11.274Z,6.03
2023-03-12T13:53:40.676Z,4.38
2023-03-12T13:56:10.165Z,5.53
2023-03-12T13:58:44.309Z,8.68
2023-03-12T14:01:15.218Z,6.78
2023-03-12T14:03:43.099Z,4.25
2023-03-12T14:06:11.165Z,6.32
2023-03-12T14:08:52.596Z,4.38
2023-03-12T14:11:26.195Z,5.50
2023-03-12T14:14:09.415Z,5.85
2023-03-12T14:16:38.880Z,4.75
2023-03-12T14:21:34.048Z,8.00
2023-03-12T14:24:01.238Z,4.47
2023-03-12T14:26:28.837Z,5.75
2023-03-12T14:28:58.526Z,4.45
2023-03-12T14:31:26.917Z,5.65
2023-03-12T14:33:56.102Z,4.35
2023-03-12T14:36:24.005Z,4.32
2023-03-12T14:38:50.950Z,3.97
2023-03-12T14:41:19.905Z,4.53
2023-03-12T14:43:46.488Z,4.40
2023-03-12T14:46:14.687Z,4.38
2023-03-12T14:48:42.506Z,5.97
2023-03-12T14:51:19.724Z,3.80
2023-03-12T14:53:47.017Z,4.20
2023-03-12T14:56:14.705Z,5.75
2023-03-12T14:58:46.294Z,5.78
2023-03-12T15:01:13.385Z,6.93
2023-03-12T15:03:43.165Z,4.88
2023-03-12T15:06:14.508Z,4.20
2023-03-12T15:08:42.957Z,5.75
2023-03-12T15:11:10.579Z,4.38
2023-03-12T15:13:37.327Z,5.15
2023-03-12T15:16:04.280Z,4.82
2023-03-12T15:18:31.717Z,6.13
2023-03-12T15:21:01.314Z,4.85
2023-03-12T15:23:29.176Z,3.70
2023-03-12T15:26:16.389Z,5.13
2023-03-12T15:28:43.037Z,5.38
2023-03-12T15:31:11.170Z,3.97
2023-03-12T15:33:38.060Z,7.15
2023-03-12T15:36:15.710Z,5.20
2023-03-12T15:38:45.069Z,4.50
2023-03-12T15:41:18.529Z,4.88
2023-03-12T15:43:46.814Z,4.53
2023-03-12T15:46:13.885Z,4.07
2023-03-12T15:48:40.847Z,5.13
2023-03-12T15:51:13.727Z,3.88
2023-03-12T15:53:40.134Z,5.15
2023-03-12T15:56:20.336Z,4.75
2023-03-12T15:58:46.933Z,6.00
2023-03-12T16:01:14.886Z,3.97
2023-03-12T16:03:42.181Z,4.00
2023-03-12T16:06:11.558Z,4.50
2023-03-12T16:08:41.163Z,4.57
2023-03-12T16:13:33.847Z,5.60
2023-03-12T16:16:00.272Z,8.80
2023-03-12T16:18:26.776Z,4.75
2023-03-12T16:20:53.498Z,4.50
2023-03-12T16:23:19.913Z,4.97
2023-03-12T16:25:48.882Z,3.90
2023-03-12T16:28:16.686Z,4.68
2023-03-12T16:30:43.134Z,3.78
2023-03-12T16:33:13.245Z,5.90
2023-03-12T16:35:40.045Z,3.58
2023-03-12T16:38:06.480Z,4.70
2023-03-12T16:40:35.526Z,6.88
2023-03-12T16:43:04.279Z,5.75
2023-03-12T16:45:31.300Z,3.90
2023-03-12T16:47:59.006Z,4.03
2023-03-12T16:50:25.790Z,5.40
2023-03-12T16:52:52.209Z,4.28
2023-03-12T16:55:19.272Z,4.07
2023-03-12T16:57:47.079Z,4.03
2023-03-12T17:00:16.915Z,4.55
2023-03-12T17:02:43.333Z,5.10
2023-03-12T17:05:13.399Z,6.60
2023-03-12T17:07:39.785Z,4.85
2023-03-12T17:10:11.107Z,4.30
2023-03-12T17:12:42.835Z,6.38
2023-03-12T17:15:12.668Z,5.35
2023-03-12T17:17:40.486Z,5.75
2023-03-12T17:20:10.717Z,5.60
2023-03-12T17:22:37.466Z,6.55
2023-03-12T17:25:05.214Z,6.28
2023-03-12T17:27:31.783Z,4.95
2023-03-12T17:29:58.921Z,6.82
2023-03-12T17:32:25.425Z,4.82
2023-03-12T17:34:56.126Z,8.10
2023-03-12T17:37:22.535Z,5.47
2023-03-12T17:39:48.960Z,6.47
2023-03-12T17:42:15.313Z,6.55
2023-03-12T17:44:41.989Z,7.43
2023-03-12T17:47:08.603Z,6.18
2023-03-12T17:49:35.015Z,7.68
2023-03-12T17:52:03.494Z,4.20
2023-03-12T17:54:29.913Z,5.97
2023-03-12T17:56:56.295Z,5.47
2023-03-12T17:59:22.804Z,8.27
2023-03-12T18:01:49.822Z,8.23
2023-03-12T18:04:16.257Z,8.63
2023-03-12T18:06:42.661Z,4.65
2023-03-12T18:09:10.415Z,6.78
2023-03-12T18:11:36.787Z,5.72
2023-03-12T18:14:03.242Z,5.80
2023-03-12T18:16:29.680Z,8.88
2023-03-12T18:18:56.092Z,10.30
2023-03-12T18:21:22.483Z,7.97
2023-03-12T18:23:48.868Z,8.60
2023-03-12T18:26:16.654Z,6.85
2023-03-12T18:28:43.533Z,9.40
2023-03-12T18:31:10.040Z,11.20
2023-03-12T18:33:36.522Z,8.43
2023-03-12T18:36:03.024Z,11.05
2023-03-12T18:38:30.676Z,13.23
2023-03-12T18:41:01.910Z,12.98
2023-03-12T18:43:29.632Z,9.50
2023-03-12T18:45:56.025Z,9.57
2023-03-12T18:48:22.402Z,12.57
2023-03-12T18:50:49.748Z,9.45
2023-03-12T18:53:16.370Z,20.10
2023-03-12T18:55:50.633Z,12.95
2023-03-12T18:58:16.995Z,14.73
2023-03-12T19:00:44.838Z,9.65
2023-03-12T19:03:11.294Z,11.27
2023-03-12T19:05:37.731Z,10.27
2023-03-12T19:08:04.573Z,11.02
2023-03-12T19:10:30.928Z,14.93
2023-03-12T19:12:58.643Z,13.63
2023-03-12T19:15:25.420Z,13.48
2023-03-12T19:17:53.175Z,18.05
2023-03-12T19:20:19.874Z,19.45
2023-03-12T19:22:46.250Z,21.58
2023-03-12T19:25:12.642Z,21.73
2023-03-12T19:27:39.018Z,23.40
2023-03-12T19:30:06.066Z,17.88
2023-03-12T19:32:42.298Z,22.15
2023-03-12T19:35:11.889Z,20.25
2023-03-12T19:37:38.328Z,20.23
2023-03-12T19:40:07.466Z,25.02
2023-03-12T19:42:33.881Z,28.27
2023-03-12T19:45:00.272Z,28.75
2023-03-12T19:47:26.704Z,22.40
2023-03-12T19:49:53.097Z,25.45
2023-03-12T19:52:20.897Z,23.05
2023-03-12T19:55:01.497Z,25.00
2023-03-12T19:57:30.486Z,28.50
2023-03-12T19:59:56.876Z,25.45
2023-03-12T20:02:23.436Z,29.95
2023-03-12T20:04:49.966Z,25.70
2023-03-12T20:07:16.326Z,27.55
2023-03-12T20:09:44.038Z,24.25
2023-03-12T20:12:10.480Z,25.15
2023-03-12T20:14:36.914Z,22.70
2023-03-12T20:17:03.290Z,25.75
2023-03-12T20:19:29.669Z,28.52
2023-03-12T20:21:56.069Z,26.88
2023-03-12T20:24:22.535Z,25.15
2023-03-12T20:26:50.300Z,18.77
2023-03-12T20:29:16.820Z,21.77
2023-03-12T20:31:43.301Z,24.70
2023-03-12T20:34:09.712Z,24.20
2023-03-12T20:36:36.107Z,22.35
2023-03-12T20:39:02.490Z,26.50
2023-03-12T20:41:28.894Z,24.17
2023-03-12T20:43:56.999Z,31.42
2023-03-12T20:46:23.730Z,48.60
2023-03-12T20:48:50.349Z,36.80
2023-03-12T20:51:17.297Z,44.33
2023-03-12T20:53:43.810Z,45.35
2023-03-12T20:56:10.454Z,47.53
2023-03-12T20:58:37.108Z,47.67
2023-03-12T21:01:05.654Z,47.28
2023-03-12T21:03:32.511Z,56.88
2023-03-12T21:05:59.568Z,58.58
2023-03-12T21:08:25.977Z,48.85
2023-03-12T21:10:52.334Z,55.55
2023-03-12T21:13:19.257Z,54.42
2023-03-12T21:15:45.968Z,49.70
2023-03-12T21:18:13.736Z,48.75
2023-03-12T21:20:41.236Z,55.17
2023-03-12T21:23:08.349Z,57.25
2023-03-12T21:25:35.330Z,44.25
2023-03-12T21:28:01.697Z,50.25
2023-03-12T21:30:28.461Z,55.22
2023-03-12T21:32:54.964Z,47.13
2023-03-12T21:35:22.825Z,52.15
2023-03-12T21:37:49.310Z,64.53
2023-03-12T21:40:15.811Z,62.22
2023-03-12T21:42:42.186Z,64.78
2023-03-12T21:45:09.395Z,68.65
2023-03-12T21:47:36.022Z,82.97
2023-03-12T21:50:02.581Z,97.43
2023-03-12T21:52:30.304Z,75.75
2023-03-12T21:54:56.878Z,78.63
2023-03-12T21:57:23.227Z,75.03
2023-03-12T21:59:49.604Z,80.68
2023-03-12T22:02:16.000Z,83.63
2023-03-12T22:04:42.514Z,86.05
2023-03-12T22:07:08.969Z,81.10
2023-03-12T22:09:36.861Z,82.55
2023-03-12T22:12:03.524Z,82.57
2023-03-12T22:14:30.311Z,77.97
2023-03-12T22:16:57.045Z,76.13
2023-03-12T22:19:23.505Z,72.15
2023-03-12T22:21:49.893Z,72.50
2023-03-12T22:24:16.308Z,74.45
2023-03-12T22:26:45.448Z,77.00
2023-03-12T22:29:11.920Z,76.32
2023-03-12T22:31:38.381Z,79.40
2023-03-12T22:34:04.754Z,82.68
2023-03-12T22:36:31.445Z,73.90
2023-03-12T22:38:58.176Z,80.55
2023-03-12T22:41:25.545Z,78.78
2023-03-12T22:43:54.283Z,84.10
2023-03-12T22:46:21.857Z,81.23
2023-03-12T22:48:52.291Z,84.85
2023-03-12T22:51:18.715Z,84.85
2023-03-12T22:53:45.172Z,85.28
2023-03-12T22:56:12.090Z,91.68
2023-03-12T22:58:38.687Z,86.40
2023-03-12T23:01:07.284Z,93.55
2023-03-12T23:03:34.098Z,87.57
2023-03-12T23:06:00.806Z,77.20
2023-03-12T23:08:27.310Z,87.38
2023-03-12T23:10:54.508Z,105.13
2023-03-12T23:13:20.948Z,97.78
2023-03-12T23:15:47.460Z,89.68
2023-03-12T23:18:15.267Z,92.50
2023-03-12T23:20:41.728Z,81.50
2023-03-12T23:23:08.176Z,85.60
2023-03-12T23:25:34.548Z,82.97
2023-03-12T23:28:00.961Z,89.13
2023-03-12T23:30:27.486Z,94.15
2023-03-12T23:32:53.860Z,91.40
2023-03-12T23:35:21.786Z,94.95
2023-03-12T23:37:48.417Z,97.05
2023-03-12T23:40:15.079Z,92.00
2023-03-12T23:42:41.482Z,91.53
2023-03-12T23:45:08.486Z,92.90
2023-03-12T23:47:34.842Z,91.90
2023-03-12T23:50:01.196Z,82.85
2023-03-12T23:52:29.137Z,85.32
2023-03-12T23:54:55.567Z,88.38
2023-03-12T23:57:21.945Z,93.53
2023-03-12T23:59:48.411Z,91.70
